Time;durP1;ratioP1;P1;durP2;ratioP2;P2;SDS_P1;SDS_P2;PMS_P1;PMS_P2;Temp;Humidity;BMP_temperature;BMP_pressure;BME280_temperature;BME280_humidity;BME280_pressure;Samples;Min_cycle;Max_cycle;Signal;HPM_P1;HPM_P2
2023/04/01 00:02:23;;;;;;;4.13;1.30;;;12.50;75.60;;;;;;4992590;28;20557;-82
2023/04/01 00:04:51;;;;;;;4.43;1.10;;;12.50;75.60;;;;;;4977174;28;20444;-85
2023/04/01 00:07:22;;;;;;;6.47;1.60;;;12.50;75.60;;;;;;4973560;28;20460;-84
2023/04/01 00:09:51;;;;;;;5.30;1.30;;;12.50;75.60;;;;;;4979279;28;20464;-83
2023/04/01 00:12:19;;;;;;;6.40;1.87;;;12.50;75.60;;;;;;4982311;28;20457;-83
2023/04/01 00:14:47;;;;;;;5.17;1.20;;;12.40;75.60;;;;;;4996134;28;20479;-85
2023/04/01 00:17:14;;;;;;;5.97;1.33;;;12.40;75.60;;;;;;4972540;28;20463;-82
2023/04/01 00:19:42;;;;;;;6.67;1.70;;;12.50;75.60;;;;;;4978375;28;21021;-83
2023/04/01 00:22:11;;;;;;;7.97;1.70;;;12.50;75.60;;;;;;4989058;28;20477;-84
2023/04/01 00:24:40;;;;;;;5.53;1.37;;;12.50;75.50;;;;;;4990407;28;20461;-81
2023/04/01 00:27:08;;;;;;;6.83;1.30;;;12.50;75.60;;;;;;4986436;28;20796;-85
2023/04/01 00:29:36;;;;;;;6.43;1.40;;;12.50;75.40;;;;;;4976692;28;20454;-85
2023/04/01 00:32:04;;;;;;;4.40;1.20;;;12.50;75.40;;;;;;4994196;28;20525;-83
2023/04/01 00:34:32;;;;;;;4.73;1.53;;;12.50;75.40;;;;;;4975035;28;20462;-82
2023/04/01 00:37:00;;;;;;;5.50;1.90;;;12.50;75.40;;;;;;4976002;28;20457;-85
2023/04/01 00:39:30;;;;;;;9.30;1.47;;;12.40;75.40;;;;;;4971137;28;20469;-84
2023/04/01 00:41:59;;;;;;;8.07;1.97;;;12.40;75.40;;;;;;4985480;28;20481;-85
2023/04/01 00:44:29;;;;;;;5.80;1.50;;;12.40;75.40;;;;;;4988058;28;20488;-83
2023/04/01 00:46:57;;;;;;;7.40;1.50;;;12.40;75.30;;;;;;4986841;28;20461;-82
2023/04/01 00:49:30;;;;;;;5.57;2.17;;;12.40;75.20;;;;;;4978804;28;20812;-82
2023/04/01 00:52:01;;;;;;;7.37;1.40;;;12.40;75.10;;;;;;4992905;28;20457;-83
2023/04/01 00:54:31;;;;;;;4.53;1.37;;;12.40;75.30;;;;;;4975871;28;20449;-81
2023/04/01 00:57:06;;;;;;;12.27;1.60;;;12.40;75.40;;;;;;4968858;28;20459;-85
2023/04/01 00:59:38;;;;;;;6.17;1.23;;;12.40;75.30;;;;;;4992599;28;20490;-85
2023/04/01 01:02:10;;;;;;;4.77;1.60;;;12.40;75.20;;;;;;4974444;28;20493;-84
2023/04/01 01:04:39;;;;;;;7.77;1.20;;;12.40;75.20;;;;;;4997802;28;20458;-82
2023/04/01 01:07:18;;;;;;;7.23;1.70;;;12.50;75.20;;;;;;4982045;28;20465;-82
2023/04/01 01:09:53;;;;;;;5.20;1.30;;;12.40;75.10;;;;;;4974160;28;20459;-81
2023/04/01 01:12:28;;;;;;;7.73;1.50;;;12.40;75.20;;;;;;4970780;28;20473;-80
2023/04/01 01:15:03;;;;;;;7.13;1.33;;;12.40;75.20;;;;;;4973253;28;20516;-82
2023/04/01 01:17:41;;;;;;;4.40;1.27;;;12.40;75.30;;;;;;4978052;28;20459;-83
2023/04/01 01:20:55;;;;;;;5.50;1.57;;;12.40;75.30;;;;;;4992638;28;20477;-82
2023/04/01 01:23:58;;;;;;;7.03;1.10;;;12.40;75.20;;;;;;4992845;28;21034;-83
2023/04/01 01:26:55;;;;;;;5.30;1.03;;;12.40;75.00;;;;;;4987069;28;20510;-81
2023/04/01 01:29:58;;;;;;;5.53;1.20;;;12.40;75.10;;;;;;4990187;28;20466;-81
2023/04/01 01:32:44;;;;;;;6.17;1.53;;;12.40;75.10;;;;;;4986664;28;20490;-81
2023/04/01 01:35:21;;;;;;;6.87;1.33;;;12.30;75.00;;;;;;4991284;28;20454;-80
2023/04/01 01:37:53;;;;;;;9.23;1.40;;;12.30;75.10;;;;;;5001406;28;20465;-80
2023/04/01 01:40:22;;;;;;;5.33;1.27;;;12.30;75.00;;;;;;5005271;28;20462;-80
2023/04/01 01:42:54;;;;;;;4.87;1.03;;;12.30;75.10;;;;;;4992993;28;20472;-80
2023/04/01 01:45:26;;;;;;;9.20;1.60;;;12.30;75.10;;;;;;4999139;28;20653;-80
2023/04/01 01:47:55;;;;;;;7.97;1.37;;;12.30;75.00;;;;;;4992354;28;20461;-79
2023/04/01 01:50:26;;;;;;;7.27;1.20;;;12.30;75.00;;;;;;4986677;28;20952;-80
2023/04/01 01:53:05;;;;;;;8.07;1.23;;;12.30;74.90;;;;;;4993653;28;20480;-80
2023/04/01 01:55:35;;;;;;;5.60;1.30;;;12.30;75.00;;;;;;4989262;28;20458;-79
2023/04/01 01:58:11;;;;;;;5.90;1.67;;;12.30;75.00;;;;;;4977250;28;20483;-80
2023/04/01 02:00:42;;;;;;;7.20;1.40;;;12.30;75.00;;;;;;4993240;28;20479;-80
2023/04/01 02:03:13;;;;;;;6.97;1.33;;;12.30;75.00;;;;;;4993743;28;20852;-79
2023/04/01 02:05:44;;;;;;;5.17;1.37;;;12.30;75.00;;;;;;4999115;28;20467;-80
2023/04/01 02:08:16;;;;;;;5.27;1.23;;;12.30;74.90;;;;;;5000125;28;20463;-79
2023/04/01 02:10:49;;;;;;;5.57;1.23;;;12.40;74.90;;;;;;4990731;28;20467;-80
2023/04/01 02:13:26;;;;;;;8.57;1.37;;;12.30;74.80;;;;;;4974855;28;20550;-80
2023/04/01 02:15:57;;;;;;;7.37;1.30;;;12.30;74.90;;;;;;4994852;28;20460;-80
2023/04/01 02:18:25;;;;;;;9.13;1.40;;;12.30;74.80;;;;;;4983014;28;20607;-80
2023/04/01 02:20:57;;;;;;;7.33;1.47;;;12.30;74.80;;;;;;4996105;28;20471;-83
2023/04/01 02:23:27;;;;;;;8.40;1.67;;;12.30;74.80;;;;;;4999514;28;20825;-83
2023/04/01 02:25:55;;;;;;;5.50;1.30;;;12.30;74.70;;;;;;4984306;28;20455;-84
2023/04/01 02:28:25;;;;;;;4.30;1.20;;;12.30;74.70;;;;;;4974049;28;20515;-84
2023/04/01 02:30:53;;;;;;;7.07;2.00;;;12.30;74.70;;;;;;4985760;28;21166;-84
2023/04/01 02:33:21;;;;;;;7.80;1.20;;;12.30;74.60;;;;;;5001994;28;20463;-84
2023/04/01 02:35:51;;;;;;;4.80;1.13;;;12.30;74.60;;;;;;4996391;28;20491;-78
2023/04/01 02:38:20;;;;;;;4.90;1.50;;;12.30;74.50;;;;;;4995113;28;20477;-81
2023/04/01 02:40:50;;;;;;;6.50;1.87;;;12.30;74.60;;;;;;4999110;28;20453;-79
2023/04/01 02:43:19;;;;;;;11.23;1.40;;;12.30;74.60;;;;;;4971358;28;20508;-82
2023/04/01 02:45:47;;;;;;;5.97;1.50;;;12.20;74.60;;;;;;4994711;28;20456;-81
2023/04/01 02:48:15;;;;;;;5.20;1.30;;;12.30;74.70;;;;;;5005092;28;20462;-81
2023/04/01 02:50:43;;;;;;;9.07;1.60;;;12.30;74.60;;;;;;4998992;28;20456;-80
2023/04/01 02:53:11;;;;;;;6.30;1.17;;;12.30;74.50;;;;;;4989015;28;20465;-82
2023/04/01 02:55:41;;;;;;;5.37;1.30;;;12.30;74.50;;;;;;4977620;28;20516;-84
2023/04/01 02:58:09;;;;;;;5.07;1.43;;;12.30;74.60;;;;;;5004720;28;21073;-83
2023/04/01 03:00:37;;;;;;;6.70;1.47;;;12.30;74.60;;;;;;4979421;28;20514;-82
2023/04/01 03:03:05;;;;;;;6.67;1.37;;;12.30;74.40;;;;;;4993622;28;20477;-81
2023/04/01 03:05:34;;;;;;;6.60;1.53;;;12.30;74.40;;;;;;4980183;28;20463;-82
2023/04/01 03:08:03;;;;;;;7.77;1.77;;;12.30;74.40;;;;;;4981298;28;20605;-82
2023/04/01 03:10:31;;;;;;;5.03;0.97;;;12.30;74.30;;;;;;4973329;28;20464;-83
2023/04/01 03:13:00;;;;;;;5.97;1.17;;;12.30;74.30;;;;;;4992556;28;20455;-83
2023/04/01 03:15:28;;;;;;;8.00;1.53;;;12.20;74.40;;;;;;4988284;28;20504;-82
2023/04/01 03:17:56;;;;;;;11.03;1.70;;;12.30;74.30;;;;;;4970951;28;20455;-82
2023/04/01 03:20:24;;;;;;;7.33;1.20;;;12.30;74.30;;;;;;4991486;28;20492;-81
2023/04/01 03:22:53;;;;;;;5.00;1.23;;;12.30;74.30;;;;;;4989143;28;20482;-82
2023/04/01 03:25:21;;;;;;;6.83;1.17;;;12.30;74.20;;;;;;4991003;28;20935;-82
2023/04/01 03:27:49;;;;;;;5.53;1.20;;;12.20;74.20;;;;;;4980580;28;20457;-82
2023/04/01 03:30:18;;;;;;;9.43;1.80;;;12.20;74.30;;;;;;4992598;28;20465;-80
2023/04/01 03:32:50;;;;;;;8.67;1.70;;;12.20;74.10;;;;;;4990467;28;21388;-80
2023/04/01 03:35:19;;;;;;;6.57;1.13;;;12.20;74.20;;;;;;4973024;28;20458;-81
2023/04/01 03:37:48;;;;;;;12.50;1.83;;;12.20;74.10;;;;;;4994460;28;20452;-81
2023/04/01 03:40:16;;;;;;;5.90;1.20;;;12.20;74.20;;;;;;4992208;28;20455;-81
2023/04/01 03:42:44;;;;;;;7.03;1.60;;;12.20;74.20;;;;;;4976359;28;20472;-84
2023/04/01 03:45:12;;;;;;;8.87;1.33;;;12.20;74.10;;;;;;4983170;28;20477;-82
2023/04/01 03:47:42;;;;;;;4.30;1.10;;;12.20;74.20;;;;;;4974163;28;20467;-81
2023/04/01 03:50:11;;;;;;;5.63;1.10;;;12.10;74.30;;;;;;4988410;28;20472;-81
2023/04/01 03:52:40;;;;;;;6.20;1.33;;;12.10;74.30;;;;;;4994172;28;20528;-81
2023/04/01 03:55:08;;;;;;;8.30;1.10;;;12.10;74.10;;;;;;4988403;28;20501;-80
2023/04/01 03:57:38;;;;;;;8.40;1.70;;;12.10;74.20;;;;;;5002317;28;20462;-79
2023/04/01 04:00:15;;;;;;;5.30;1.10;;;12.10;74.30;;;;;;4985726;28;20975;-80
2023/04/01 04:02:47;;;;;;;7.23;1.03;;;12.20;74.20;;;;;;4987288;28;20469;-80
2023/04/01 04:05:21;;;;;;;4.27;1.20;;;12.20;74.10;;;;;;4991792;28;20490;-80
2023/04/01 04:07:49;;;;;;;4.93;1.40;;;12.10;74.20;;;;;;4993899;28;20468;-81
2023/04/01 04:10:24;;;;;;;7.27;1.30;;;12.10;74.20;;;;;;4976300;28;20540;-81
2023/04/01 04:12:53;;;;;;;3.63;0.90;;;12.10;74.30;;;;;;5005138;28;20448;-81
2023/04/01 04:15:24;;;;;;;6.00;1.43;;;12.10;74.20;;;;;;4995011;28;20468;-80
2023/04/01 04:17:53;;;;;;;5.73;1.53;;;12.10;74.30;;;;;;4980548;28;20494;-82
2023/04/01 04:20:21;;;;;;;12.83;1.77;;;12.10;74.30;;;;;;4993442;28;20487;-83
2023/04/01 04:22:49;;;;;;;5.37;1.03;;;12.10;74.30;;;;;;4996787;28;20440;-82
2023/04/01 04:25:17;;;;;;;6.70;1.20;;;12.10;74.30;;;;;;4997315;28;21002;-80
2023/04/01 04:27:45;;;;;;;4.50;0.97;;;12.10;74.30;;;;;;4975428;28;20497;-80
2023/04/01 04:30:15;;;;;;;3.83;1.13;;;12.20;74.20;;;;;;4990858;28;20783;-83
2023/04/01 04:32:45;;;;;;;6.10;1.07;;;12.20;74.20;;;;;;4998000;28;20909;-82
2023/04/01 04:35:15;;;;;;;4.40;1.07;;;12.20;74.20;;;;;;4993762;28;20483;-84
2023/04/01 04:37:43;;;;;;;6.37;1.43;;;12.20;74.20;;;;;;4991782;28;20482;-83
2023/04/01 04:40:11;;;;;;;4.20;1.03;;;12.20;74.20;;;;;;4988354;28;20458;-81
2023/04/01 04:42:40;;;;;;;7.30;1.23;;;12.20;74.20;;;;;;4990435;28;20467;-81
2023/04/01 04:45:12;;;;;;;7.13;1.30;;;12.20;74.20;;;;;;4971785;28;20481;-81
2023/04/01 04:47:47;;;;;;;3.47;1.20;;;12.10;74.30;;;;;;4993087;28;20460;-82
2023/04/01 04:50:16;;;;;;;5.63;1.07;;;12.10;74.30;;;;;;4974775;28;20500;-81
2023/04/01 04:52:44;;;;;;;3.93;1.20;;;12.10;74.30;;;;;;4989439;28;20460;-80
2023/04/01 04:55:13;;;;;;;4.33;1.50;;;12.00;74.40;;;;;;4985991;28;20458;-82
2023/04/01 04:57:43;;;;;;;5.07;1.10;;;12.00;74.50;;;;;;4974088;28;20460;-81
2023/04/01 05:00:12;;;;;;;7.60;1.50;;;12.00;74.50;;;;;;4976392;28;20470;-81
2023/04/01 05:03:01;;;;;;;3.47;1.00;;;12.00;74.50;;;;;;4981090;28;20460;-82
2023/04/01 05:05:30;;;;;;;5.53;1.20;;;12.00;74.50;;;;;;4976586;28;20502;-81
2023/04/01 05:07:59;;;;;;;4.43;1.13;;;12.00;74.60;;;;;;4987325;28;20468;-79
2023/04/01 05:10:27;;;;;;;3.47;1.20;;;11.90;74.80;;;;;;4992584;28;20938;-78
2023/04/01 05:12:55;;;;;;;4.70;0.93;;;11.90;74.90;;;;;;4974225;28;20882;-80
2023/04/01 05:15:24;;;;;;;4.77;1.60;;;11.90;74.70;;;;;;4982199;28;20550;-81
2023/04/01 05:17:51;;;;;;;5.47;1.10;;;11.90;74.70;;;;;;5002941;28;20459;-82
2023/04/01 05:20:20;;;;;;;3.83;1.10;;;11.90;74.70;;;;;;4992025;28;20483;-81
2023/04/01 05:22:49;;;;;;;5.33;1.30;;;12.00;74.70;;;;;;4988436;28;20444;-81
2023/04/01 05:25:18;;;;;;;5.43;1.20;;;12.00;74.80;;;;;;4992531;28;20494;-81
2023/04/01 05:27:46;;;;;;;3.67;0.97;;;12.00;74.70;;;;;;4992969;28;20466;-81
2023/04/01 05:30:14;;;;;;;3.20;1.00;;;12.00;74.70;;;;;;4989497;28;20465;-81
2023/04/01 05:32:54;;;;;;;8.53;1.30;;;12.00;74.70;;;;;;4987513;28;21027;-81
2023/04/01 05:35:22;;;;;;;5.77;1.43;;;12.00;74.60;;;;;;4998733;28;20489;-83
2023/04/01 05:37:51;;;;;;;4.60;0.93;;;11.90;74.80;;;;;;5001690;28;20597;-82
2023/04/01 05:40:21;;;;;;;6.73;1.07;;;12.00;74.80;;;;;;4989151;28;20547;-81
2023/04/01 05:42:50;;;;;;;5.33;0.80;;;12.00;74.70;;;;;;4992815;28;20474;-81
2023/04/01 05:45:18;;;;;;;4.80;0.90;;;12.00;74.60;;;;;;4990621;28;20504;-80
2023/04/01 05:48:06;;;;;;;6.13;1.20;;;11.90;74.70;;;;;;4982136;28;20462;-81
2023/04/01 05:50:41;;;;;;;5.50;1.40;;;11.90;74.90;;;;;;5000052;28;20456;-81
2023/04/01 05:53:12;;;;;;;4.10;0.90;;;11.90;74.80;;;;;;4993839;28;20456;-81
2023/04/01 05:55:42;;;;;;;4.20;0.80;;;12.00;74.80;;;;;;4993286;28;20455;-81
2023/04/01 05:58:15;;;;;;;3.57;0.80;;;11.90;74.80;;;;;;5001606;28;20549;-83
2023/04/01 06:00:46;;;;;;;4.47;1.10;;;12.00;74.70;;;;;;4997955;28;20623;-82
2023/04/01 06:03:17;;;;;;;4.53;0.87;;;11.90;74.90;;;;;;4988424;28;20469;-80
2023/04/01 06:05:45;;;;;;;4.03;1.10;;;11.90;74.90;;;;;;4977050;28;20504;-79
2023/04/01 06:08:18;;;;;;;6.60;1.10;;;11.90;75.00;;;;;;4994186;28;21452;-81
2023/04/01 06:11:13;;;;;;;5.47;1.30;;;11.90;75.10;;;;;;4977419;28;20509;-81
2023/04/01 06:14:00;;;;;;;4.13;1.27;;;11.90;75.10;;;;;;4988637;28;20528;-80
2023/04/01 06:16:39;;;;;;;4.33;1.10;;;11.90;75.10;;;;;;4985322;28;20478;-80
2023/04/01 06:19:36;;;;;;;9.03;1.00;;;12.00;75.10;;;;;;4991766;28;20458;-81
2023/04/01 06:22:31;;;;;;;8.87;1.20;;;12.00;75.10;;;;;;4976395;28;20520;-81
2023/04/01 06:25:50;;;;;;;4.53;1.20;;;12.00;75.10;;;;;;4989104;28;20487;-82
2023/04/01 06:28:40;;;;;;;4.27;1.30;;;12.00;75.10;;;;;;4930202;29;20634;-82
2023/04/01 06:31:23;;;;;;;6.33;1.20;;;12.10;75.10;;;;;;4921249;29;20962;-82
2023/04/01 06:34:07;;;;;;;4.70;1.10;;;12.10;75.10;;;;;;4967566;28;20801;-82
2023/04/01 06:36:53;;;;;;;6.17;1.17;;;12.10;75.20;;;;;;4989861;28;20467;-83
2023/04/01 06:39:54;;;;;;;5.30;1.20;;;12.10;75.20;;;;;;4993239;28;20998;-83
2023/04/01 06:42:46;;;;;;;7.37;1.07;;;12.20;75.10;;;;;;4993228;28;20969;-81
2023/04/01 06:45:42;;;;;;;4.60;1.37;;;12.20;75.30;;;;;;4978523;28;20917;-81
2023/04/01 06:48:47;;;;;;;5.40;1.20;;;12.20;75.40;;;;;;4987580;28;21327;-82
2023/04/01 06:51:46;;;;;;;5.13;1.10;;;12.20;75.40;;;;;;4974685;28;20450;-81
2023/04/01 06:54:36;;;;;;;4.63;0.97;;;12.30;75.40;;;;;;4975296;28;20454;-81
2023/04/01 06:57:46;;;;;;;5.50;1.20;;;12.30;75.30;;;;;;4983554;28;20507;-81
2023/04/01 07:00:25;;;;;;;7.90;1.17;;;12.30;75.30;;;;;;4985154;28;20732;-81
2023/04/01 07:02:58;;;;;;;4.43;0.90;;;12.20;75.30;;;;;;4969698;28;20453;-81
2023/04/01 07:05:31;;;;;;;4.23;1.00;;;12.20;75.30;;;;;;4985337;28;20491;-82
2023/04/01 07:08:05;;;;;;;5.13;1.03;;;12.20;75.30;;;;;;4989509;28;20470;-81
2023/04/01 07:10:43;;;;;;;4.70;1.43;;;12.20;75.40;;;;;;4993529;28;20494;-80
2023/04/01 07:13:35;;;;;;;5.40;1.03;;;12.20;75.50;;;;;;4973648;28;20599;-81
2023/04/01 07:16:16;;;;;;;4.57;0.93;;;12.20;75.60;;;;;;4995557;28;20916;-82
2023/04/01 07:18:49;;;;;;;6.10;1.17;;;12.30;75.60;;;;;;5002656;28;20473;-81
2023/04/01 07:21:29;;;;;;;3.73;1.10;;;12.30;75.60;;;;;;4994924;28;20978;-81
2023/04/01 07:24:06;;;;;;;4.97;1.00;;;12.40;75.60;;;;;;4975898;28;20497;-83
2023/04/01 07:26:43;;;;;;;4.60;1.00;;;12.40;75.50;;;;;;4995713;28;20503;-82
2023/04/01 07:29:21;;;;;;;6.13;1.10;;;12.40;75.60;;;;;;4999261;28;20520;-82
2023/04/01 07:32:21;;;;;;;5.33;1.70;;;12.40;75.60;;;;;;4989378;28;20520;-81
2023/04/01 07:35:00;;;;;;;4.80;1.40;;;12.50;75.50;;;;;;4976777;28;20473;-82
2023/04/01 07:37:34;;;;;;;4.93;1.00;;;12.40;75.60;;;;;;4973090;28;20537;-82
2023/04/01 07:40:14;;;;;;;11.03;1.67;;;12.40;75.70;;;;;;4989645;28;20475;-83
2023/04/01 07:42:58;;;;;;;4.90;1.20;;;12.40;75.80;;;;;;4999133;28;21150;-82
2023/04/01 07:45:35;;;;;;;5.53;1.10;;;12.40;75.70;;;;;;4977517;28;20481;-84
2023/04/01 07:48:16;;;;;;;7.53;1.40;;;12.50;75.70;;;;;;4979437;28;20504;-82
2023/04/01 07:50:51;;;;;;;4.73;1.27;;;12.50;75.60;;;;;;4983285;28;20887;-81
2023/04/01 07:53:28;;;;;;;4.70;1.30;;;12.50;75.60;;;;;;4993765;28;20511;-82
2023/04/01 07:56:05;;;;;;;5.23;1.30;;;12.40;75.60;;;;;;4993176;28;20504;-81
2023/04/01 07:58:44;;;;;;;3.67;0.90;;;12.40;75.70;;;;;;4997760;28;20464;-84
2023/04/01 08:01:28;;;;;;;4.40;1.10;;;12.40;75.70;;;;;;5003058;28;20483;-84
2023/04/01 08:04:21;;;;;;;6.60;1.27;;;12.40;75.70;;;;;;4973226;28;20471;-81
2023/04/01 08:06:58;;;;;;;4.03;1.17;;;12.30;75.90;;;;;;4971223;28;20705;-83
2023/04/01 08:09:36;;;;;;;4.00;0.80;;;12.20;76.20;;;;;;4979066;28;20472;-83
2023/04/01 08:12:36;;;;;;;4.57;0.93;;;12.20;76.20;;;;;;4976842;28;20523;-84
2023/04/01 08:15:27;;;;;;;7.17;0.97;;;12.20;76.20;;;;;;4983310;28;20509;-84
2023/04/01 08:18:19;;;;;;;4.03;0.83;;;12.20;76.20;;;;;;4976705;28;20473;-84
2023/04/01 08:20:55;;;;;;;3.83;0.93;;;12.20;76.30;;;;;;4988691;28;20723;-85
2023/04/01 08:23:27;;;;;;;3.97;0.80;;;12.20;76.20;;;;;;4989639;28;20560;-81
2023/04/01 08:26:01;;;;;;;4.20;1.00;;;12.20;76.30;;;;;;4987939;28;20483;-84
2023/04/01 08:28:38;;;;;;;3.17;0.70;;;12.20;76.40;;;;;;4976924;28;20453;-83
2023/04/01 08:31:13;;;;;;;4.07;1.07;;;12.20;76.50;;;;;;4989552;28;20485;-83
2023/04/01 08:33:48;;;;;;;3.47;0.80;;;12.30;76.60;;;;;;4974904;28;20461;-83
2023/04/01 08:36:19;;;;;;;5.10;1.30;;;12.30;76.60;;;;;;4977262;28;20469;-83
2023/04/01 08:38:58;;;;;;;3.83;0.70;;;12.30;76.50;;;;;;4983702;28;20476;-83
2023/04/01 08:41:47;;;;;;;5.07;1.57;;;12.30;76.50;;;;;;4984772;28;20925;-78
2023/04/01 08:45:11;;;;;;;3.67;0.60;;;12.30;76.60;;;;;;4965890;28;20525;-81
2023/04/01 08:48:26;;;;;;;4.10;0.80;;;12.20;76.70;;;;;;4983855;28;20528;-78
2023/04/01 08:54:21;;;;;;;3.10;0.90;;;12.20;76.90;;;;;;5143888;27;20326;-64
2023/04/01 08:57:02;;;;;;;3.73;0.97;;;12.10;77.30;;;;;;5099919;28;20543;-64
2023/04/01 08:59:51;;;;;;;3.30;1.00;;;12.20;77.50;;;;;;5119209;27;20774;-64
2023/04/01 09:03:35;;;;;;;4.05;1.00;;;12.20;77.50;;;;;;4977468;28;3413832;-64
2023/04/01 09:06:40;;;;;;;3.07;0.80;;;12.30;77.70;;;;;;5065242;28;20208;-64
2023/04/01 09:09:52;;;;;;;3.40;0.90;;;12.30;77.70;;;;;;5096679;28;20927;-63
2023/04/01 09:12:52;;;;;;;3.33;0.80;;;12.30;77.70;;;;;;5097473;28;20490;-64
2023/04/01 09:16:00;;;;;;;4.23;1.03;;;12.30;77.90;;;;;;5100172;28;20946;-63
2023/04/01 09:19:21;;;;;;;3.90;0.80;;;12.30;77.90;;;;;;5078300;28;20962;-64
2023/04/01 09:22:59;;;;;;;3.00;0.73;;;12.30;78.00;;;;;;5080658;28;20533;-64
2023/04/01 09:25:49;;;;;;;3.70;0.90;;;12.30;78.00;;;;;;5094926;28;20493;-63
2023/04/01 09:28:34;;;;;;;3.47;0.67;;;12.30;78.10;;;;;;5085609;28;20887;-63
2023/04/01 09:31:36;;;;;;;3.43;0.70;;;12.30;78.20;;;;;;5094987;28;20515;-64
2023/04/01 09:34:57;;;;;;;3.67;0.70;;;12.30;78.20;;;;;;5079570;28;20499;-64
2023/04/01 09:38:20;;;;;;;4.17;0.83;;;12.30;78.10;;;;;;5097271;28;21007;-64
2023/04/01 09:40:57;;;;;;;2.77;0.77;;;12.30;78.20;;;;;;5099221;28;20471;-64
2023/04/01 09:44:02;;;;;;;2.80;0.70;;;12.30;78.30;;;;;;5100128;28;20466;-64
2023/04/01 09:47:15;;;;;;;3.30;1.10;;;12.30;78.40;;;;;;5094355;28;20841;-63
2023/04/01 09:50:23;;;;;;;3.50;0.87;;;12.30;78.50;;;;;;5087873;28;20463;-63
2023/04/01 09:53:06;;;;;;;2.80;0.80;;;12.30;78.60;;;;;;5076340;28;20501;-64
2023/04/01 09:56:05;;;;;;;4.40;0.93;;;12.30;78.70;;;;;;5094687;28;20536;-64
2023/04/01 09:59:11;;;;;;;3.00;0.73;;;12.40;78.70;;;;;;5097351;28;20481;-64
2023/04/01 10:02:45;;;;;;;3.83;1.00;;;12.40;78.80;;;;;;5063221;28;20495;-64
2023/04/01 10:06:14;;;;;;;3.00;0.90;;;12.40;78.70;;;;;;5081252;28;20572;-64
2023/04/01 10:09:20;;;;;;;4.20;0.80;;;12.50;79.20;;;;;;5063652;28;21082;-64
2023/04/01 10:12:31;;;;;;;3.93;0.70;;;12.70;79.50;;;;;;5062056;28;20471;-64
2023/04/01 10:16:02;;;;;;;3.10;0.80;;;12.90;79.50;;;;;;5082937;28;20493;-64
2023/04/01 10:19:20;;;;;;;3.57;0.60;;;13.00;79.40;;;;;;5087902;28;20560;-64
2023/04/01 10:22:45;;;;;;;4.00;0.77;;;13.10;79.30;;;;;;5085634;28;20464;-64
2023/04/01 10:25:39;;;;;;;3.20;0.90;;;13.30;79.10;;;;;;4985756;28;20457;-65
2023/04/01 10:29:03;;;;;;;3.10;0.77;;;13.40;79.00;;;;;;4989591;28;20534;-64
2023/04/01 10:32:24;;;;;;;2.90;0.60;;;13.30;78.80;;;;;;4989209;28;20468;-62
2023/04/01 10:35:46;;;;;;;2.80;0.60;;;13.40;78.90;;;;;;5058931;28;20473;-64
2023/04/01 10:39:02;;;;;;;2.87;0.77;;;13.40;78.70;;;;;;5034416;28;20474;-64
2023/04/01 10:42:13;;;;;;;2.70;0.60;;;13.40;78.90;;;;;;5009410;28;20471;-63
2023/04/01 10:45:39;;;;;;;3.27;0.70;;;13.40;79.10;;;;;;5083022;28;20923;-63
2023/04/01 10:48:44;;;;;;;3.30;0.90;;;13.50;78.80;;;;;;5064548;28;20450;-63
2023/04/01 10:51:48;;;;;;;2.70;0.60;;;13.50;78.60;;;;;;5062725;28;20519;-63
2023/04/01 10:55:15;;;;;;;2.60;0.50;;;13.50;78.80;;;;;;5077911;28;20481;-63
2023/04/01 10:58:51;;;;;;;2.83;0.60;;;13.50;78.60;;;;;;5017083;28;20453;-63
2023/04/01 11:02:28;;;;;;;2.80;0.80;;;13.60;78.70;;;;;;5082596;28;20608;-63
2023/04/01 11:06:13;;;;;;;3.23;0.73;;;13.60;78.40;;;;;;4996583;28;21111;-65
2023/04/01 11:09:40;;;;;;;2.80;0.60;;;13.60;78.50;;;;;;4967552;28;21008;-63
2023/04/01 11:12:42;;;;;;;3.03;0.60;;;13.60;78.60;;;;;;5013152;28;20484;-63
2023/04/01 11:15:51;;;;;;;3.07;0.50;;;13.50;78.60;;;;;;5078122;28;20464;-63
2023/04/01 11:19:04;;;;;;;2.93;0.50;;;13.60;78.70;;;;;;5045012;28;20495;-63
2023/04/01 11:22:21;;;;;;;2.53;0.60;;;13.60;78.60;;;;;;5086630;28;21117;-63
2023/04/01 11:25:27;;;;;;;2.80;0.50;;;13.60;78.60;;;;;;5082321;28;20453;-63
2023/04/01 11:28:46;;;;;;;6.00;0.70;;;13.60;78.90;;;;;;5083296;28;20483;-63
2023/04/01 11:31:36;;;;;;;2.80;0.63;;;13.60;79.00;;;;;;5069422;28;20479;-63
2023/04/01 11:34:31;;;;;;;2.80;0.60;;;13.70;79.00;;;;;;5085869;28;20562;-63
2023/04/01 11:37:16;;;;;;;2.60;0.53;;;13.70;78.90;;;;;;5081412;28;20461;-63
2023/04/01 11:40:18;;;;;;;3.50;0.70;;;13.70;79.00;;;;;;5078594;28;20557;-63
2023/04/01 11:43:17;;;;;;;3.40;0.80;;;13.70;79.00;;;;;;5082171;28;20940;-63
2023/04/01 11:46:28;;;;;;;3.63;0.60;;;13.70;79.00;;;;;;5080280;28;20615;-63
2023/04/01 11:49:17;;;;;;;2.60;0.50;;;13.80;79.00;;;;;;5083822;28;20454;-64
2023/04/01 11:52:15;;;;;;;3.10;0.63;;;13.80;79.00;;;;;;5075539;28;20489;-63
2023/04/01 11:55:28;;;;;;;3.03;0.60;;;13.90;79.00;;;;;;5078425;28;20541;-63
2023/04/01 11:58:20;;;;;;;5.00;0.60;;;13.90;78.80;;;;;;5034696;28;20501;-63
2023/04/01 12:01:19;;;;;;;3.43;0.60;;;13.90;78.80;;;;;;5080766;28;20492;-62
2023/04/01 12:04:34;;;;;;;2.90;0.70;;;13.90;78.90;;;;;;5082560;28;20968;-63
2023/04/01 12:07:40;;;;;;;2.97;0.50;;;13.90;79.10;;;;;;5029885;28;20556;-63
2023/04/01 12:10:23;;;;;;;3.43;0.60;;;14.00;79.20;;;;;;5079555;28;20458;-63
2023/04/01 12:13:13;;;;;;;4.50;0.80;;;14.00;79.30;;;;;;5079464;28;20495;-63
2023/04/01 12:15:55;;;;;;;2.90;0.60;;;14.10;79.30;;;;;;5077330;28;20472;-63
2023/04/01 12:18:41;;;;;;;2.87;0.77;;;14.10;79.30;;;;;;5083796;28;20446;-63
2023/04/01 12:21:26;;;;;;;3.20;0.90;;;14.20;79.20;;;;;;5080131;28;20464;-63
2023/04/01 12:24:39;;;;;;;4.87;0.77;;;14.20;79.10;;;;;;5081605;28;21041;-62
2023/04/01 12:27:46;;;;;;;3.23;0.60;;;14.20;79.10;;;;;;5070373;28;20488;-63
2023/04/01 12:31:04;;;;;;;2.80;0.50;;;14.20;79.10;;;;;;5082417;28;20457;-63
2023/04/01 12:33:58;;;;;;;4.20;0.70;;;14.20;79.10;;;;;;5082313;28;20488;-63
2023/04/01 12:36:56;;;;;;;2.60;0.40;;;14.20;79.20;;;;;;5082038;28;20471;-63
2023/04/01 12:39:57;;;;;;;4.23;0.70;;;14.20;79.20;;;;;;5077851;28;20500;-62
2023/04/01 12:43:13;;;;;;;2.60;0.50;;;14.30;79.20;;;;;;5078890;28;20469;-63
2023/04/01 12:45:50;;;;;;;2.70;0.50;;;14.30;79.10;;;;;;5084076;28;20503;-63
2023/04/01 12:49:27;;;;;;;2.60;0.47;;;14.30;79.00;;;;;;5078057;28;20468;-62
2023/04/01 12:52:12;;;;;;;2.60;0.40;;;14.20;78.80;;;;;;5066604;28;20472;-63
2023/04/01 12:55:30;;;;;;;2.70;0.50;;;14.20;79.00;;;;;;5079678;28;20473;-63
2023/04/01 12:58:46;;;;;;;2.87;0.40;;;14.10;79.00;;;;;;5079637;28;20464;-63
2023/04/01 13:01:46;;;;;;;3.07;0.63;;;14.10;78.90;;;;;;5079682;28;20561;-63
2023/04/01 13:04:55;;;;;;;2.80;0.53;;;14.00;79.10;;;;;;5080188;28;20464;-63
2023/04/01 13:08:34;;;;;;;2.67;0.50;;;14.00;79.30;;;;;;5081413;28;20488;-62
2023/04/01 13:11:30;;;;;;;4.40;0.70;;;14.00;79.30;;;;;;5078494;28;20535;-63
2023/04/01 13:14:39;;;;;;;2.50;0.50;;;14.00;79.40;;;;;;5077363;28;20572;-63
2023/04/01 13:17:22;;;;;;;2.60;0.70;;;14.00;79.40;;;;;;5076363;28;20524;-64
2023/04/01 13:20:08;;;;;;;2.80;0.60;;;14.00;79.50;;;;;;5079350;28;20899;-63
2023/04/01 13:22:55;;;;;;;3.43;0.60;;;14.00;79.50;;;;;;5082141;28;20996;-63
2023/04/01 13:25:35;;;;;;;3.07;0.60;;;14.00;79.50;;;;;;5077759;28;21072;-63
2023/04/01 13:28:21;;;;;;;2.90;0.60;;;14.00;79.50;;;;;;5077256;28;20464;-63
2023/04/01 13:31:03;;;;;;;2.93;0.50;;;14.10;79.50;;;;;;5079186;28;20508;-63
2023/04/01 13:33:51;;;;;;;2.90;0.60;;;14.00;79.40;;;;;;5078056;28;20461;-63
2023/04/01 13:36:38;;;;;;;2.80;0.60;;;14.00;79.50;;;;;;5080295;28;20900;-63
2023/04/01 13:39:40;;;;;;;2.53;0.50;;;14.00;79.50;;;;;;5080656;28;20890;-63
2023/04/01 13:42:19;;;;;;;2.80;0.60;;;14.00;79.40;;;;;;5082857;28;20537;-63
2023/04/01 13:45:11;;;;;;;3.20;0.60;;;14.00;79.50;;;;;;5081293;28;20461;-63
2023/04/01 13:48:04;;;;;;;2.60;0.40;;;13.90;79.50;;;;;;5080105;28;20445;-63
2023/04/01 13:50:54;;;;;;;2.93;0.60;;;13.90;79.60;;;;;;5084160;28;20456;-63
2023/04/01 13:54:17;;;;;;;2.80;0.60;;;13.90;79.60;;;;;;5084425;28;20465;-63
2023/04/01 13:56:58;;;;;;;2.57;0.57;;;13.90;79.60;;;;;;5081573;28;20550;-63
2023/04/01 13:59:51;;;;;;;3.00;0.53;;;13.90;79.50;;;;;;5082175;28;20468;-63
2023/04/01 14:03:13;;;;;;;3.00;0.70;;;13.90;79.50;;;;;;5083594;28;20580;-63
2023/04/01 14:05:59;;;;;;;2.70;0.50;;;13.90;79.50;;;;;;5083626;28;21083;-63
2023/04/01 14:08:59;;;;;;;2.60;0.50;;;13.80;79.70;;;;;;5084098;28;20544;-63
2023/04/01 14:11:46;;;;;;;3.83;0.70;;;13.90;79.70;;;;;;5080694;28;20910;-63
2023/04/01 14:14:32;;;;;;;2.73;0.67;;;13.90;79.70;;;;;;5084751;28;20967;-63
2023/04/01 14:17:27;;;;;;;2.60;0.60;;;13.90;79.70;;;;;;5083469;28;20529;-63
2023/04/01 14:20:24;;;;;;;3.03;0.87;;;13.90;79.70;;;;;;5081393;28;20469;-63
2023/04/01 14:23:15;;;;;;;2.90;0.60;;;13.90;79.70;;;;;;5077492;28;20495;-63